createdAt,value
2019-05-30T00:00:55.941Z,12.40
2019-05-30T00:03:25.996Z,12.50
2019-05-30T00:05:56.289Z,12.40
2019-05-30T00:08:25.834Z,12.30
2019-05-30T00:10:54.947Z,12.40
2019-05-30T00:13:24.812Z,12.30
2019-05-30T00:15:54.858Z,12.30
2019-05-30T00:18:24.719Z,12.20
2019-05-30T00:20:54.701Z,12.20
2019-05-30T00:23:24.602Z,12.20
2019-05-30T00:25:55.133Z,12.10
2019-05-30T00:28:25.614Z,12.10
2019-05-30T00:30:56.358Z,12.10
2019-05-30T00:33:26.524Z,12.10
2019-05-30T00:35:55.993Z,12.10
2019-05-30T00:38:25.789Z,12.00
2019-05-30T00:40:55.789Z,12.00
2019-05-30T00:43:25.605Z,11.90
2019-05-30T00:45:55.925Z,12.00
2019-05-30T00:48:25.726Z,11.90
2019-05-30T00:50:56.353Z,11.90
2019-05-30T00:53:25.932Z,11.90
2019-05-30T00:55:56.708Z,11.80
2019-05-30T00:58:26.622Z,11.90
2019-05-30T01:00:56.757Z,11.90
2019-05-30T01:03:27.062Z,11.90
2019-05-30T01:05:56.708Z,11.90
2019-05-30T01:08:26.303Z,11.80
2019-05-30T01:10:56.887Z,11.80
2019-05-30T01:13:26.741Z,11.80
2019-05-30T01:15:56.933Z,11.80
2019-05-30T01:18:26.542Z,11.80
2019-05-30T01:20:56.989Z,11.70
2019-05-30T01:23:27.035Z,11.70
2019-05-30T01:25:57.331Z,11.60
2019-05-30T01:28:26.604Z,11.60
2019-05-30T01:31:01.471Z,11.60
2019-05-30T01:33:27.663Z,11.60
2019-05-30T01:35:57.776Z,11.50
2019-05-30T01:38:27.368Z,11.50
2019-05-30T01:40:57.621Z,11.50
2019-05-30T01:43:27.340Z,11.50
2019-05-30T01:45:57.961Z,11.60
2019-05-30T01:48:27.568Z,11.50
2019-05-30T01:50:58.221Z,11.50
2019-05-30T01:53:28.508Z,11.40
2019-05-30T01:55:58.542Z,11.30
2019-05-30T01:58:28.441Z,11.30
2019-05-30T02:00:58.749Z,11.40
2019-05-30T02:03:29.303Z,11.30
2019-05-30T02:05:59.114Z,11.30
2019-05-30T02:08:29.244Z,11.20
2019-05-30T02:10:59.173Z,11.10
2019-05-30T02:13:28.761Z,11.10
2019-05-30T02:15:59.487Z,11.00
2019-05-30T02:18:29.321Z,11.00
2019-05-30T02:20:59.497Z,11.00
2019-05-30T02:23:29.555Z,10.90
2019-05-30T02:26:00.091Z,11.00
2019-05-30T02:28:30.372Z,10.80
2019-05-30T02:31:00.496Z,10.80
2019-05-30T02:33:30.163Z,10.70
2019-05-30T02:36:01.303Z,10.70
2019-05-30T02:38:31.527Z,10.70
2019-05-30T02:41:03.168Z,10.60
2019-05-30T02:43:32.595Z,10.60
2019-05-30T02:46:03.523Z,10.60
2019-05-30T02:48:33.341Z,10.60
2019-05-30T02:51:03.357Z,10.60
2019-05-30T02:53:32.565Z,10.50
2019-05-30T02:56:03.562Z,10.40
2019-05-30T02:58:32.537Z,10.40
2019-05-30T03:01:02.323Z,10.40
2019-05-30T03:03:32.853Z,10.50
2019-05-30T03:06:03.746Z,10.40
2019-05-30T03:08:33.506Z,10.50
2019-05-30T03:11:04.455Z,10.40
2019-05-30T03:13:33.868Z,10.40
2019-05-30T03:16:04.536Z,10.50
2019-05-30T03:18:34.518Z,10.40
2019-05-30T03:21:05.682Z,10.40
2019-05-30T03:23:35.580Z,10.40
2019-05-30T03:26:07.095Z,10.40
2019-05-30T03:28:36.690Z,10.40
2019-05-30T03:31:14.047Z,10.40
2019-05-30T03:33:42.017Z,10.40
2019-05-30T03:36:19.998Z,10.40
2019-05-30T03:38:40.861Z,10.40
2019-05-30T03:41:12.163Z,10.40
2019-05-30T03:43:41.351Z,10.40
2019-05-30T03:46:14.980Z,10.40
2019-05-30T03:48:44.212Z,10.50
2019-05-30T03:51:15.143Z,10.50
2019-05-30T03:53:44.411Z,10.50
2019-05-30T03:56:17.799Z,10.60
2019-05-30T03:58:54.005Z,10.60
2019-05-30T04:01:28.798Z,10.60
2019-05-30T04:04:12.107Z,10.50
2019-05-30T04:06:45.979Z,10.60
2019-05-30T04:09:21.978Z,10.60
2019-05-30T04:11:54.419Z,10.50
2019-05-30T04:14:26.169Z,10.50
2019-05-30T04:16:56.043Z,10.50
2019-05-30T04:19:26.240Z,10.50
2019-05-30T04:21:56.249Z,10.50
2019-05-30T04:24:25.751Z,10.50
2019-05-30T04:26:54.912Z,10.50
2019-05-30T04:29:24.067Z,10.50
2019-05-30T04:31:53.170Z,10.40
2019-05-30T04:34:23.003Z,10.40
2019-05-30T04:36:53.618Z,10.40
2019-05-30T04:39:24.119Z,10.50
2019-05-30T04:41:53.692Z,10.50
2019-05-30T04:44:23.246Z,10.60
2019-05-30T04:46:53.007Z,10.60
2019-05-30T04:49:23.325Z,10.60
2019-05-30T04:51:52.783Z,10.70
2019-05-30T04:54:21.967Z,10.70
2019-05-30T04:56:51.951Z,10.80
2019-05-30T04:59:21.874Z,10.80
2019-05-30T05:01:52.514Z,10.90
2019-05-30T05:04:21.883Z,10.90
2019-05-30T05:06:51.176Z,10.90
2019-05-30T05:09:22.340Z,11.00
2019-05-30T05:11:52.128Z,11.00
2019-05-30T05:14:22.569Z,11.00
2019-05-30T05:16:52.764Z,11.00
2019-05-30T05:19:25.250Z,11.00
2019-05-30T05:21:53.292Z,11.00
2019-05-30T05:24:23.692Z,11.10
2019-05-30T05:26:54.231Z,11.10
2019-05-30T05:29:24.180Z,11.00
2019-05-30T05:31:54.149Z,11.10
2019-05-30T05:34:24.846Z,11.20
2019-05-30T05:36:54.450Z,11.20
2019-05-30T05:39:24.215Z,11.30
2019-05-30T05:41:53.796Z,11.40
2019-05-30T05:44:24.489Z,11.40
2019-05-30T05:46:53.757Z,11.20
2019-05-30T05:49:22.943Z,11.30
2019-05-30T05:51:52.162Z,11.40
2019-05-30T05:54:22.993Z,11.40
2019-05-30T05:56:52.919Z,11.50
2019-05-30T05:59:23.102Z,11.50
2019-05-30T06:01:52.394Z,11.50
2019-05-30T06:04:23.276Z,11.50
2019-05-30T06:06:53.269Z,11.60
2019-05-30T06:09:23.191Z,11.60
2019-05-30T06:11:52.784Z,11.60
2019-05-30T06:14:22.341Z,11.60
2019-05-30T06:16:55.083Z,11.70
2019-05-30T06:19:23.750Z,11.70
2019-05-30T06:21:54.253Z,11.80
2019-05-30T06:24:23.812Z,11.70
2019-05-30T06:26:53.306Z,11.70
2019-05-30T06:29:22.432Z,11.80
2019-05-30T06:31:52.502Z,11.80
2019-05-30T06:34:35.966Z,11.80
2019-05-30T06:36:53.796Z,11.80
2019-05-30T06:39:23.478Z,11.80
2019-05-30T06:41:53.782Z,11.90
2019-05-30T06:44:23.977Z,12.00
2019-05-30T06:46:54.444Z,12.10
2019-05-30T06:49:24.763Z,12.30
2019-05-30T06:51:54.675Z,12.20
2019-05-30T06:54:24.686Z,12.30
2019-05-30T06:56:55.228Z,12.30
2019-05-30T06:59:25.585Z,12.40
2019-05-30T07:01:55.480Z,12.30
2019-05-30T07:04:27.408Z,12.40
2019-05-30T07:06:57.079Z,12.30
2019-05-30T07:09:26.922Z,12.30
2019-05-30T07:11:56.592Z,12.30
2019-05-30T07:14:27.139Z,12.30
2019-05-30T07:16:57.280Z,12.30
2019-05-30T07:19:27.421Z,12.40
2019-05-30T07:21:57.274Z,12.30
2019-05-30T07:24:27.807Z,12.40
2019-05-30T07:26:56.945Z,12.40
2019-05-30T07:29:26.364Z,12.50
2019-05-30T07:31:55.526Z,12.60
2019-05-30T07:34:25.935Z,12.70
2019-05-30T07:36:56.031Z,12.80
2019-05-30T07:39:27.168Z,13.00
2019-05-30T07:42:06.366Z,13.10
2019-05-30T07:44:29.071Z,13.10
2019-05-30T07:46:58.566Z,13.20
2019-05-30T07:49:28.366Z,13.20
2019-05-30T07:51:57.480Z,13.40
2019-05-30T07:54:27.292Z,13.40
2019-05-30T07:56:56.427Z,13.20
2019-05-30T07:59:26.374Z,13.20
2019-05-30T08:01:55.914Z,13.30
2019-05-30T08:04:25.097Z,13.10
2019-05-30T08:06:54.934Z,13.10
2019-05-30T08:09:24.713Z,13.20
2019-05-30T08:11:54.542Z,13.20
2019-05-30T08:14:24.279Z,13.30
2019-05-30T08:16:53.765Z,13.40
2019-05-30T08:19:23.316Z,13.30
2019-05-30T08:21:53.057Z,13.40
2019-05-30T08:24:23.007Z,13.60
2019-05-30T08:26:52.136Z,13.50
2019-05-30T08:29:21.631Z,13.80
2019-05-30T08:31:50.861Z,13.70
2019-05-30T08:34:20.447Z,13.70
2019-05-30T08:36:50.464Z,13.90
2019-05-30T08:39:20.676Z,14.00
2019-05-30T08:41:50.488Z,14.10
2019-05-30T08:44:19.587Z,14.20
2019-05-30T08:46:49.531Z,14.20
2019-05-30T08:49:19.592Z,14.30
2019-05-30T08:51:49.017Z,14.30
2019-05-30T08:54:18.879Z,14.30
2019-05-30T08:56:49.008Z,14.30
2019-05-30T08:59:18.458Z,14.10
2019-05-30T09:01:52.937Z,14.20
2019-05-30T09:04:19.814Z,14.30
2019-05-30T09:06:50.035Z,14.40
2019-05-30T09:09:20.246Z,14.60
2019-05-30T09:11:49.755Z,14.50
2019-05-30T09:14:19.902Z,14.60
2019-05-30T09:16:51.048Z,14.70
2019-05-30T09:19:21.096Z,14.80
2019-05-30T09:21:50.666Z,14.90
2019-05-30T09:24:20.375Z,15.00
2019-05-30T09:26:50.580Z,15.20
2019-05-30T09:29:19.802Z,15.20
2019-05-30T09:31:49.335Z,15.20
2019-05-30T09:34:18.778Z,15.10
2019-05-30T09:36:49.112Z,15.00
2019-05-30T09:39:18.410Z,15.10
2019-05-30T09:41:47.961Z,15.00
2019-05-30T09:44:17.753Z,15.20
2019-05-30T09:46:48.518Z,15.30
2019-05-30T09:49:18.075Z,15.20
2019-05-30T09:51:47.241Z,15.20
2019-05-30T09:54:17.179Z,15.20
2019-05-30T09:56:47.017Z,15.20
2019-05-30T09:59:16.849Z,15.30
2019-05-30T10:01:46.288Z,15.30
2019-05-30T10:04:16.154Z,15.40
2019-05-30T10:06:46.349Z,15.30
2019-05-30T10:09:15.929Z,15.20
2019-05-30T10:11:45.602Z,15.20
2019-05-30T10:14:15.635Z,15.20
2019-05-30T10:16:50.660Z,15.10
2019-05-30T10:19:17.333Z,15.30
2019-05-30T10:21:47.163Z,15.10
2019-05-30T10:24:17.033Z,15.30
2019-05-30T10:26:47.198Z,15.40
2019-05-30T10:29:17.220Z,15.30
2019-05-30T10:31:46.534Z,15.30
2019-05-30T10:34:15.743Z,15.30
2019-05-30T10:36:47.211Z,15.40
2019-05-30T10:39:16.762Z,15.50
2019-05-30T10:41:47.470Z,15.60
2019-05-30T10:44:17.500Z,15.50
2019-05-30T10:46:47.551Z,15.40
2019-05-30T10:49:31.489Z,15.60
2019-05-30T10:51:49.638Z,15.70
2019-05-30T10:54:19.217Z,15.70
2019-05-30T10:56:49.569Z,15.60
2019-05-30T10:59:19.430Z,15.60
2019-05-30T11:01:50.215Z,15.70
2019-05-30T11:04:20.232Z,15.80
2019-05-30T11:07:10.636Z,15.80
2019-05-30T11:09:31.266Z,15.80
2019-05-30T11:12:01.606Z,15.80
2019-05-30T11:14:30.947Z,15.80
2019-05-30T11:17:00.185Z,15.80
2019-05-30T11:19:29.422Z,15.80
2019-05-30T11:21:59.021Z,15.80
2019-05-30T11:24:28.479Z,15.90
2019-05-30T11:26:58.994Z,15.80
2019-05-30T11:29:28.981Z,15.80
2019-05-30T11:31:59.054Z,15.90
2019-05-30T11:34:28.755Z,15.80
2019-05-30T11:36:59.336Z,15.80
2019-05-30T11:39:30.239Z,15.80
2019-05-30T11:41:59.863Z,15.80
2019-05-30T11:44:29.102Z,15.80
2019-05-30T11:46:59.760Z,15.80
2019-05-30T11:49:29.592Z,15.80
2019-05-30T11:52:00.006Z,15.70
2019-05-30T11:54:29.516Z,15.60
2019-05-30T11:57:00.081Z,15.60
2019-05-30T11:59:29.535Z,15.60
2019-05-30T12:02:00.268Z,15.60
2019-05-30T12:04:30.434Z,15.60
2019-05-30T12:07:00.938Z,15.60
2019-05-30T12:09:30.146Z,15.60
2019-05-30T12:12:01.327Z,15.30
2019-05-30T12:14:31.077Z,15.30
2019-05-30T12:17:01.405Z,15.30
2019-05-30T12:19:30.799Z,15.30
2019-05-30T12:22:00.386Z,15.20
2019-05-30T12:24:29.553Z,15.10
2019-05-30T12:27:00.094Z,15.10
2019-05-30T12:29:30.131Z,15.00
2019-05-30T12:32:00.676Z,15.00
2019-05-30T12:34:30.828Z,15.00
2019-05-30T12:37:00.604Z,14.90
2019-05-30T12:39:30.351Z,14.90
2019-05-30T12:41:59.590Z,14.80
2019-05-30T12:44:28.877Z,14.80
2019-05-30T12:46:59.145Z,14.80
2019-05-30T12:49:29.223Z,14.80
2019-05-30T12:51:58.528Z,14.80
2019-05-30T12:54:28.078Z,14.80
2019-05-30T12:56:58.626Z,14.80
2019-05-30T12:59:28.326Z,14.80
2019-05-30T13:01:58.975Z,14.80
2019-05-30T13:04:28.811Z,14.80
2019-05-30T13:06:59.338Z,14.90
2019-05-30T13:09:29.203Z,14.80
2019-05-30T13:12:00.472Z,14.70
2019-05-30T13:14:30.043Z,14.70
2019-05-30T13:16:59.737Z,14.60
2019-05-30T13:19:30.066Z,14.70
2019-05-30T13:22:01.250Z,14.70
2019-05-30T13:24:31.007Z,14.60
2019-05-30T13:27:01.690Z,14.60
2019-05-30T13:29:31.953Z,14.50
2019-05-30T13:32:02.531Z,14.50
2019-05-30T13:34:32.295Z,14.60
2019-05-30T13:37:02.922Z,14.60
2019-05-30T13:39:33.082Z,14.60
2019-05-30T13:42:03.632Z,14.70
2019-05-30T13:44:33.715Z,14.70
2019-05-30T13:47:04.572Z,14.60
2019-05-30T13:49:34.874Z,14.60
2019-05-30T13:52:05.205Z,14.60
2019-05-30T13:54:35.325Z,14.60
2019-05-30T13:57:05.799Z,14.60
2019-05-30T13:59:35.340Z,14.60
2019-05-30T14:02:06.029Z,14.60
2019-05-30T14:04:36.021Z,14.60
2019-05-30T14:07:06.374Z,14.60
2019-05-30T14:09:35.669Z,14.60
2019-05-30T14:12:06.745Z,14.60
2019-05-30T14:14:36.422Z,14.60
2019-05-30T14:17:09.521Z,14.50
2019-05-30T14:19:36.891Z,14.50
2019-05-30T14:22:07.244Z,14.40
2019-05-30T14:24:36.789Z,14.40
2019-05-30T14:27:07.617Z,14.30
2019-05-30T14:29:36.847Z,14.30
2019-05-30T14:32:06.291Z,14.40
2019-05-30T14:34:36.250Z,14.40
2019-05-30T14:37:06.415Z,14.40
2019-05-30T14:39:35.770Z,14.40
2019-05-30T14:42:07.113Z,14.40
2019-05-30T14:44:36.362Z,14.50
2019-05-30T14:47:06.377Z,14.50
2019-05-30T14:49:35.808Z,14.50
2019-05-30T14:52:06.604Z,14.50
2019-05-30T14:54:35.927Z,14.40
2019-05-30T14:57:05.426Z,14.40
2019-05-30T14:59:34.669Z,14.50
2019-05-30T15:02:04.991Z,14.50
2019-05-30T15:04:35.250Z,14.60
2019-05-30T15:07:05.296Z,14.50
2019-05-30T15:09:35.193Z,14.40
2019-05-30T15:12:06.986Z,14.40
2019-05-30T15:14:36.291Z,14.40
2019-05-30T15:17:05.933Z,14.30
2019-05-30T15:19:35.795Z,14.30
2019-05-30T15:22:05.940Z,14.30
2019-05-30T15:24:35.549Z,14.30
2019-05-30T15:27:05.989Z,14.30
2019-05-30T15:29:35.309Z,14.30
2019-05-30T15:32:06.245Z,14.30
2019-05-30T15:34:36.839Z,14.30
2019-05-30T15:37:06.867Z,14.40
2019-05-30T15:39:36.929Z,14.20
2019-05-30T15:42:07.190Z,14.30
2019-05-30T15:44:37.275Z,14.30
2019-05-30T15:47:07.830Z,14.30
2019-05-30T15:49:37.383Z,14.40
2019-05-30T15:52:06.868Z,14.30
2019-05-30T15:54:36.640Z,14.40
2019-05-30T15:57:06.926Z,14.40
2019-05-30T15:59:36.211Z,14.30
2019-05-30T16:02:05.753Z,14.30
2019-05-30T16:04:35.299Z,14.30
2019-05-30T16:07:04.805Z,14.20
2019-05-30T16:09:46.265Z,14.10
2019-05-30T16:12:05.557Z,14.10
2019-05-30T16:14:35.123Z,14.10
2019-05-30T16:17:04.289Z,14.10
2019-05-30T16:19:33.823Z,14.10
2019-05-30T16:22:03.865Z,14.10
2019-05-30T16:24:34.197Z,14.10
2019-05-30T16:27:03.700Z,14.10
2019-05-30T16:29:33.158Z,14.10
2019-05-30T16:32:02.831Z,13.90
2019-05-30T16:34:32.850Z,14.00
2019-05-30T16:37:02.267Z,14.00
2019-05-30T16:39:31.542Z,14.00
2019-05-30T16:42:01.854Z,14.00
2019-05-30T16:44:31.362Z,13.90
2019-05-30T16:47:00.594Z,13.80
2019-05-30T16:49:30.167Z,13.90
2019-05-30T16:52:01.159Z,13.80
2019-05-30T16:54:30.431Z,13.80
2019-05-30T16:57:00.146Z,13.80
2019-05-30T16:59:30.107Z,13.80
2019-05-30T17:01:59.777Z,13.70
2019-05-30T17:04:29.167Z,13.60
2019-05-30T17:06:58.443Z,13.60
2019-05-30T17:09:27.711Z,13.50
2019-05-30T17:11:57.840Z,13.60
2019-05-30T17:14:27.650Z,13.60
2019-05-30T17:16:57.215Z,13.60
2019-05-30T17:19:27.411Z,13.60
2019-05-30T17:21:57.428Z,13.50
2019-05-30T17:24:27.286Z,13.50
2019-05-30T17:26:56.581Z,13.50
2019-05-30T17:29:27.598Z,13.50
2019-05-30T17:31:57.263Z,13.40
2019-05-30T17:34:28.220Z,13.40
2019-05-30T17:36:58.262Z,13.40
2019-05-30T17:39:28.865Z,13.60
2019-05-30T17:41:58.833Z,13.60
2019-05-30T17:44:29.627Z,13.60
2019-05-30T17:46:59.449Z,13.60
2019-05-30T17:49:29.923Z,13.40
2019-05-30T17:51:59.822Z,13.40
2019-05-30T17:54:30.076Z,13.40
2019-05-30T17:57:00.380Z,13.30
2019-05-30T17:59:30.812Z,13.30
2019-05-30T18:02:01.077Z,13.40
2019-05-30T18:04:31.261Z,13.40
2019-05-30T18:07:01.704Z,13.50
2019-05-30T18:09:31.493Z,13.40
2019-05-30T18:12:01.417Z,13.40
2019-05-30T18:14:31.529Z,13.30
2019-05-30T18:17:01.094Z,13.10
2019-05-30T18:19:31.524Z,13.20
2019-05-30T18:22:01.076Z,13.10
2019-05-30T18:24:31.832Z,13.00
2019-05-30T18:27:01.888Z,13.00
2019-05-30T18:29:32.216Z,12.90
2019-05-30T18:32:01.971Z,12.90
2019-05-30T18:34:32.636Z,12.90
2019-05-30T18:37:02.625Z,12.90
2019-05-30T18:39:32.872Z,12.80
2019-05-30T18:42:02.630Z,12.90
2019-05-30T18:44:33.209Z,12.80
2019-05-30T18:47:03.542Z,12.80
2019-05-30T18:49:33.370Z,12.80
2019-05-30T18:52:02.707Z,12.80
2019-05-30T18:54:32.904Z,12.80
2019-05-30T18:57:02.651Z,12.70
2019-05-30T18:59:33.218Z,12.70
2019-05-30T19:02:03.223Z,12.70
2019-05-30T19:04:33.672Z,12.60
2019-05-30T19:07:03.601Z,12.60
2019-05-30T19:09:33.497Z,12.50
2019-05-30T19:12:03.082Z,12.50
2019-05-30T19:14:34.513Z,12.50
2019-05-30T19:17:04.727Z,12.50
2019-05-30T19:19:34.282Z,12.40
2019-05-30T19:22:03.564Z,12.40
2019-05-30T19:24:34.180Z,12.30
2019-05-30T19:27:04.245Z,12.30
2019-05-30T19:29:34.884Z,12.20
2019-05-30T19:32:04.276Z,12.20
2019-05-30T19:34:34.957Z,12.20
2019-05-30T19:37:04.909Z,12.20
2019-05-30T19:39:35.609Z,12.20
2019-05-30T19:42:05.287Z,12.10
2019-05-30T19:44:39.213Z,12.10
2019-05-30T19:47:05.656Z,12.10
2019-05-30T19:49:36.774Z,12.10
2019-05-30T19:52:06.707Z,12.00
2019-05-30T19:54:36.822Z,12.00
2019-05-30T19:57:06.660Z,12.00
2019-05-30T19:59:36.406Z,11.90
2019-05-30T20:02:05.993Z,11.90
2019-05-30T20:04:36.312Z,11.80
2019-05-30T20:07:06.475Z,11.80
2019-05-30T20:09:36.656Z,11.80
2019-05-30T20:12:08.931Z,11.80
2019-05-30T20:14:37.867Z,11.80
2019-05-30T20:17:07.468Z,11.80
2019-05-30T20:19:37.684Z,11.90
2019-05-30T20:22:07.686Z,11.80
2019-05-30T20:24:38.322Z,11.70
2019-05-30T20:27:08.185Z,11.70
2019-05-30T20:29:39.529Z,11.70
2019-05-30T20:32:09.610Z,11.70
2019-05-30T20:34:39.391Z,11.70
2019-05-30T20:37:09.619Z,11.60
2019-05-30T20:39:39.148Z,11.60
2019-05-30T20:42:18.892Z,11.60
2019-05-30T20:44:41.035Z,11.60
2019-05-30T20:47:10.840Z,11.60
2019-05-30T20:49:41.192Z,11.60
2019-05-30T20:52:11.231Z,11.60
2019-05-30T20:54:41.598Z,11.60
2019-05-30T20:57:11.152Z,11.60
2019-05-30T20:59:40.744Z,11.60
2019-05-30T21:02:09.948Z,11.60
2019-05-30T21:04:39.801Z,11.50
2019-05-30T21:07:10.290Z,11.60
2019-05-30T21:09:42.026Z,11.50
2019-05-30T21:12:11.645Z,11.50
2019-05-30T21:14:41.582Z,11.50
2019-05-30T21:17:11.225Z,11.50
2019-05-30T21:19:42.054Z,11.50
2019-05-30T21:22:11.444Z,11.60
2019-05-30T21:24:41.214Z,11.60
2019-05-30T21:27:11.120Z,11.50
2019-05-30T21:29:41.126Z,11.50
2019-05-30T21:32:11.302Z,11.50
2019-05-30T21:34:42.337Z,11.40
2019-05-30T21:37:12.488Z,11.40
2019-05-30T21:39:42.022Z,11.50
2019-05-30T21:42:11.877Z,11.50
2019-05-30T21:44:41.075Z,11.40
2019-05-30T21:47:10.226Z,11.40
2019-05-30T21:49:39.400Z,11.40
2019-05-30T21:52:09.172Z,11.30
2019-05-30T21:54:39.789Z,11.40
2019-05-30T21:57:09.729Z,11.30
2019-05-30T21:59:40.233Z,11.30
2019-05-30T22:02:10.129Z,11.30
2019-05-30T22:04:40.461Z,11.30
2019-05-30T22:07:10.217Z,11.20
2019-05-30T22:09:39.431Z,11.20
2019-05-30T22:12:09.347Z,11.10
2019-05-30T22:14:39.626Z,11.10
2019-05-30T22:17:09.255Z,11.00
2019-05-30T22:19:38.893Z,11.10
2019-05-30T22:22:08.532Z,11.00
2019-05-30T22:24:38.069Z,11.00
2019-05-30T22:27:07.885Z,11.00
2019-05-30T22:29:40.392Z,11.00
2019-05-30T22:32:09.366Z,11.00
2019-05-30T22:34:39.627Z,11.00
2019-05-30T22:37:08.837Z,10.90
2019-05-30T22:39:39.010Z,10.90
2019-05-30T22:42:08.851Z,10.90
2019-05-30T22:44:38.380Z,11.00
2019-05-30T22:47:07.986Z,11.00
2019-05-30T22:49:37.892Z,11.00
2019-05-30T22:52:07.016Z,11.00
2019-05-30T22:54:36.451Z,11.00
2019-05-30T22:57:05.977Z,11.00
2019-05-30T22:59:35.511Z,11.00
2019-05-30T23:02:04.650Z,11.00
2019-05-30T23:04:33.781Z,11.00
2019-05-30T23:07:03.563Z,11.00
2019-05-30T23:09:32.818Z,11.00
2019-05-30T23:12:02.305Z,11.00
2019-05-30T23:14:32.348Z,11.00
2019-05-30T23:17:02.187Z,11.00
2019-05-30T23:19:31.892Z,11.00
2019-05-30T23:22:01.881Z,11.00
2019-05-30T23:24:31.444Z,11.00
2019-05-30T23:27:00.696Z,11.00
2019-05-30T23:29:30.191Z,11.00
2019-05-30T23:31:59.447Z,11.00
2019-05-30T23:34:29.438Z,11.00
2019-05-30T23:36:59.506Z,11.00
2019-05-30T23:39:29.359Z,11.00
2019-05-30T23:41:59.427Z,11.00
2019-05-30T23:44:29.284Z,11.00
2019-05-30T23:46:59.718Z,11.00
2019-05-30T23:49:29.330Z,10.90
2019-05-30T23:51:58.573Z,11.00
2019-05-30T23:54:28.023Z,10.90
2019-05-30T23:56:58.623Z,10.90
2019-05-30T23:59:27.870Z,10.90
